Time;durP1;ratioP1;P1;durP2;ratioP2;P2;SDS_P1;SDS_P2;PMS_P1;PMS_P2;Temp;Humidity;BMP_temperature;BMP_pressure;BME280_temperature;BME280_humidity;BME280_pressure;Samples;Min_cycle;Max_cycle;Signal;HPM_P1;HPM_P2
2021/10/23 00:05:48;;;;;;;3.08;1.90;;;;;;;6.41;100.00;99697.58;713814;1192;113941;-81
2021/10/23 00:20:50;;;;;;;2.58;1.23;;;;;;;5.99;100.00;99705.23;714996;1175;113644;-82
2021/10/23 00:35:52;;;;;;;1.83;0.93;;;;;;;5.77;100.00;99722.50;714476;1205;115338;-80
2021/10/23 00:50:54;;;;;;;3.40;0.77;;;;;;;5.65;100.00;99750.29;714079;1202;114515;-83
2021/10/23 01:05:56;;;;;;;21.60;4.88;;;;;;;5.71;100.00;99761.18;714983;1200;113907;-81
2021/10/23 01:20:59;;;;;;;12.40;5.77;;;;;;;5.63;100.00;99754.77;714296;1202;113605;-80
2021/10/23 01:36:10;;;;;;;124.90;39.43;;;;;;;5.49;100.00;99775.83;713848;1202;113725;-82
2021/10/23 01:51:13;;;;;;;13.20;6.90;;;;;;;5.79;100.00;99779.64;713949;1200;114719;-81
2021/10/23 02:06:15;;;;;;;40.83;12.05;;;;;;;6.09;100.00;99799.92;714136;1177;113656;-81
2021/10/23 02:21:17;;;;;;;36.98;13.43;;;;;;;6.29;100.00;99815.80;714806;1199;114549;-80
2021/10/23 02:36:20;;;;;;;11.80;4.47;;;;;;;6.42;100.00;99834.73;713851;1200;114236;-83
2021/10/23 02:51:22;;;;;;;10.30;3.75;;;;;;;6.52;100.00;99847.05;715109;1199;113611;-82
2021/10/23 03:06:24;;;;;;;30.57;6.97;;;;;;;6.56;100.00;99858.88;714223;1202;113050;-82
2021/10/23 03:21:26;;;;;;;24.65;9.35;;;;;;;6.55;100.00;99878.91;714057;1177;114108;-81
2021/10/23 03:36:28;;;;;;;9.40;3.85;;;;;;;6.50;100.00;99881.05;713912;1177;113872;-82
2021/10/23 03:51:30;;;;;;;5.20;2.50;;;;;;;6.43;100.00;99898.11;713962;1200;115070;-80
2021/10/23 04:06:32;;;;;;;6.60;2.68;;;;;;;6.49;100.00;99908.89;714032;1176;114096;-82
2021/10/23 04:21:35;;;;;;;7.55;2.63;;;;;;;6.39;100.00;99917.51;714099;1199;113615;-81
2021/10/23 04:36:37;;;;;;;12.05;5.45;;;;;;;6.21;100.00;99928.39;714452;1199;113929;-83
2021/10/23 04:51:39;;;;;;;7.95;2.90;;;;;;;6.31;100.00;99936.36;714229;1202;115113;-82
2021/10/23 05:06:41;;;;;;;9.87;6.20;;;;;;;6.42;100.00;99957.20;714959;1200;113558;-82
2021/10/23 05:21:43;;;;;;;41.97;15.20;;;;;;;6.54;100.00;99965.86;714406;1203;114153;-82
2021/10/23 05:36:46;;;;;;;5.60;2.90;;;;;;;6.71;100.00;99987.22;714799;1200;114530;-81
2021/10/23 05:51:48;;;;;;;14.33;4.30;;;;;;;6.83;100.00;99996.69;714301;1200;114036;-80
2021/10/23 06:06:51;;;;;;;7.73;3.88;;;;;;;6.85;100.00;100010.45;714812;1200;113738;-80
2021/10/23 06:21:54;;;;;;;15.63;6.78;;;;;;;6.93;100.00;100033.34;715440;1205;113600;-77
2021/10/23 06:36:56;;;;;;;16.10;7.27;;;;;;;6.95;100.00;100049.69;714855;1203;113818;-77
2021/10/23 06:51:58;;;;;;;9.87;4.40;;;;;;;7.03;100.00;100068.17;714837;1199;114709;-77
2021/10/23 07:07:00;;;;;;;9.15;3.68;;;;;;;7.37;100.00;100101.30;714813;1200;113645;-77
2021/10/23 07:22:03;;;;;;;13.85;3.83;;;;;;;7.47;100.00;100123.94;714559;1200;113754;-76
2021/10/23 07:37:05;;;;;;;9.78;3.85;;;;;;;7.60;100.00;100143.86;716619;1205;114097;-77
2021/10/23 07:52:07;;;;;;;17.97;5.30;;;;;;;7.83;100.00;100196.92;715851;1200;113986;-76
2021/10/23 08:07:09;;;;;;;16.83;6.67;;;;;;;7.96;100.00;100225.53;714654;1205;113738;-81
2021/10/23 08:22:11;;;;;;;17.18;9.75;;;;;;;8.17;100.00;100249.15;714405;1199;113913;-82
2021/10/23 08:37:14;;;;;;;119.00;49.95;;;;;;;7.71;100.00;100278.80;714441;1202;113660;-83
2021/10/23 08:52:16;;;;;;;21.20;9.23;;;;;;;7.60;100.00;100277.02;715110;1176;115038;-81
2021/10/23 09:07:22;;;;;;;16.00;6.08;;;;;;;8.11;100.00;100294.04;714490;1200;113769;-82
2021/10/23 09:22:30;;;;;;;11.90;6.25;;;;;;;8.40;100.00;100327.53;715133;1199;115106;-82
2021/10/23 09:37:32;;;;;;;7.50;3.30;;;;;;;8.27;100.00;100356.40;715143;1200;115002;-74
2021/10/23 09:53:08;;;;;;;23.10;8.43;;;;;;;8.48;100.00;100383.51;714486;1205;113967;-81
2021/10/23 10:08:13;;;;;;;6.60;4.33;;;;;;;8.43;100.00;100384.80;715050;1200;114818;-82
2021/10/23 10:23:21;;;;;;;18.63;8.40;;;;;;;7.56;100.00;100406.12;714980;1199;114485;-82
2021/10/23 10:53:41;;;;;;;27.20;11.23;;;;;;;6.90;100.00;100443.00;716591;1199;114683;-88
2021/10/23 11:08:43;;;;;;;27.13;11.70;;;;;;;7.05;100.00;100462.80;715913;1199;114090;-86
2021/10/23 11:23:51;;;;;;;32.58;8.93;;;;;;;7.10;100.00;100468.52;715667;1176;113820;-73
2021/10/23 11:38:54;;;;;;;39.80;14.23;;;;;;;7.37;100.00;100509.25;714994;1199;114874;-75
2021/10/23 11:54:05;;;;;;;59.43;19.90;;;;;;;7.87;100.00;100524.84;714559;1193;113943;-75
2021/10/23 12:09:20;;;;;;;48.85;16.10;;;;;;;9.94;100.00;100547.46;715976;1199;114217;-73
2021/10/23 12:24:43;;;;;;;48.85;16.03;;;;;;;10.25;100.00;100568.53;717841;1203;115444;-73
2021/10/23 12:39:45;;;;;;;69.08;24.70;;;;;;;9.49;100.00;100604.23;715226;1197;115219;-74
2021/10/23 12:54:49;;;;;;;21.03;7.53;;;;;;;9.01;100.00;100593.16;714925;1202;114409;-75
2021/10/23 13:09:51;;;;;;;12.85;6.28;;;;;;;14.35;96.91;100630.03;714788;1176;114809;-75
2021/10/23 13:24:55;;;;;;;11.83;5.73;;;;;;;11.94;87.36;100644.42;715067;1204;116358;-76
2021/10/23 13:39:58;;;;;;;22.65;10.58;;;;;;;10.62;92.41;100667.83;714578;1200;113744;-74
2021/10/23 13:55:03;;;;;;;17.08;8.53;;;;;;;9.25;99.02;100682.91;714396;1200;115147;-73
2021/10/23 14:10:06;;;;;;;21.30;15.83;;;;;;;12.06;96.51;100709.13;714957;1200;114059;-74
2021/10/23 14:25:10;;;;;;;41.60;17.00;;;;;;;9.42;97.90;100733.98;714460;1180;114746;-74
2021/10/23 14:40:12;;;;;;;46.17;20.20;;;;;;;8.77;99.80;100770.16;714277;1204;115207;-82
2021/10/23 14:55:15;;;;;;;31.93;16.10;;;;;;;9.20;100.00;100800.22;715366;1200;113842;-81
2021/10/23 15:10:17;;;;;;;33.95;18.88;;;;;;;11.20;97.55;100829.37;714729;1176;113874;-72
2021/10/23 15:25:20;;;;;;;43.05;16.40;;;;;;;9.67;97.96;100857.83;714730;1200;114384;-74
2021/10/23 15:40:35;;;;;;;22.63;10.90;;;;;;;9.05;100.00;100909.47;715766;1202;114877;-73
2021/10/23 15:55:37;;;;;;;21.97;9.53;;;;;;;8.80;100.00;100955.71;715060;1174;114608;-71
2021/10/23 16:10:40;;;;;;;20.07;8.47;;;;;;;8.64;96.80;100983.86;714872;1202;113923;-72
2021/10/23 16:25:43;;;;;;;22.90;9.90;;;;;;;8.50;97.08;101021.44;715506;1200;114265;-73
2021/10/23 16:40:45;;;;;;;77.05;28.65;;;;;;;8.18;96.98;101041.84;714490;1180;115285;-72
2021/10/23 16:55:48;;;;;;;114.13;40.93;;;;;;;7.80;98.84;101067.75;715315;1176;113819;-71
2021/10/23 17:10:51;;;;;;;72.98;36.08;;;;;;;7.19;99.62;101105.52;715216;1200;114374;-72
2021/10/23 17:25:59;;;;;;;101.33;34.47;;;;;;;6.94;100.00;101138.28;715000;1179;114026;-71
2021/10/23 17:41:03;;;;;;;50.65;26.95;;;;;;;6.68;100.00;101168.49;715588;1200;114815;-73
2021/10/23 17:56:06;;;;;;;27.63;17.73;;;;;;;6.48;100.00;101189.57;714707;1199;114045;-71
2021/10/23 18:11:12;;;;;;;32.87;11.30;;;;;;;6.26;100.00;101210.78;714939;1177;114468;-71
2021/10/23 18:26:14;;;;;;;28.03;14.55;;;;;;;6.05;100.00;101222.38;715291;1200;115431;-72
2021/10/23 18:41:18;;;;;;;56.45;21.53;;;;;;;5.85;100.00;101242.48;714972;1178;113725;-77
2021/10/23 18:56:22;;;;;;;24.05;10.48;;;;;;;5.58;100.00;101256.03;714623;1200;114837;-81
2021/10/23 19:11:24;;;;;;;17.68;8.85;;;;;;;5.37;100.00;101276.19;714671;1199;114821;-81
2021/10/23 19:26:26;;;;;;;32.98;13.68;;;;;;;5.17;100.00;101297.98;714800;1200;113810;-79
2021/10/23 19:41:29;;;;;;;26.35;11.60;;;;;;;4.86;100.00;101311.61;714764;1176;114015;-79
2021/10/23 19:56:32;;;;;;;36.20;17.60;;;;;;;4.71;100.00;101328.80;715297;1200;115270;-79
2021/10/23 20:11:34;;;;;;;25.40;11.65;;;;;;;4.69;100.00;101354.86;714423;1185;114045;-79
2021/10/23 20:26:37;;;;;;;29.85;13.90;;;;;;;4.56;100.00;101372.77;716095;1199;115509;-79
2021/10/23 20:41:40;;;;;;;28.90;12.13;;;;;;;4.77;100.00;101396.11;715194;1175;113999;-80
2021/10/23 20:56:42;;;;;;;32.55;12.18;;;;;;;4.92;100.00;101425.75;714843;1177;113743;-79
2021/10/23 21:11:44;;;;;;;25.48;10.98;;;;;;;4.86;100.00;101428.63;714673;1200;114746;-73
2021/10/23 21:26:46;;;;;;;22.30;8.63;;;;;;;4.72;100.00;101440.50;714943;1200;114228;-73
2021/10/23 21:41:49;;;;;;;28.68;12.30;;;;;;;4.67;100.00;101432.06;714480;1201;113930;-73
2021/10/23 21:56:52;;;;;;;25.05;10.18;;;;;;;4.53;100.00;101465.62;715102;1200;114485;-77
2021/10/23 22:11:54;;;;;;;22.93;8.98;;;;;;;4.56;100.00;101491.50;714708;1178;115082;-75
2021/10/23 22:26:56;;;;;;;15.33;7.95;;;;;;;4.62;100.00;101517.23;714155;1178;114052;-76
2021/10/23 22:41:59;;;;;;;13.58;6.33;;;;;;;4.67;100.00;101536.04;714515;1177;114366;-74
2021/10/23 22:57:03;;;;;;;19.07;8.60;;;;;;;4.62;100.00;101544.05;714556;1202;114814;-76
2021/10/23 23:12:07;;;;;;;16.93;7.57;;;;;;;4.40;100.00;101556.27;714713;1178;113690;-75
2021/10/23 23:27:09;;;;;;;18.83;8.55;;;;;;;4.54;100.00;101577.34;714680;1177;114931;-76
2021/10/23 23:42:11;;;;;;;13.73;7.53;;;;;;;4.26;100.00;101578.48;714368;1176;114193;-75
2021/10/23 23:57:13;;;;;;;12.60;6.73;;;;;;;4.20;100.00;101590.84;714427;1205;113617;-75
